Time;durP1;ratioP1;P1;durP2;ratioP2;P2;SDS_P1;SDS_P2;PMS_P1;PMS_P2;Temp;Humidity;BMP_temperature;BMP_pressure;BME280_temperature;BME280_humidity;BME280_pressure;Samples;Min_cycle;Max_cycle;Signal;HPM_P1;HPM_P2
2023/06/20 00:00:59;;;;;;;15.57;11.98;;;;;;;20.02;79.05;101172.84;5055943;28;20079;-77
2023/06/20 00:03:24;;;;;;;14.88;11.77;;;;;;;19.86;79.22;101151.69;5055652;28;20078;-76
2023/06/20 00:05:50;;;;;;;13.35;11.52;;;;;;;19.98;79.07;101169.72;5054338;28;20441;-77
2023/06/20 00:08:15;;;;;;;12.98;11.18;;;;;;;19.86;79.77;101156.94;5055751;28;20128;-77
2023/06/20 00:10:40;;;;;;;14.45;11.65;;;;;;;19.82;80.05;101151.19;5055762;28;20104;-76
2023/06/20 00:13:06;;;;;;;13.98;11.88;;;;;;;19.81;79.18;101141.69;5055751;28;20116;-76
2023/06/20 00:15:32;;;;;;;18.48;12.45;;;;;;;19.69;78.47;101127.16;5055498;28;20100;-77
2023/06/20 00:18:01;;;;;;;18.30;12.15;;;;;;;19.92;78.70;101166.84;5055582;28;20025;-76
2023/06/20 00:20:27;;;;;;;15.93;11.60;;;;;;;19.82;77.77;101153.81;5055408;28;20029;-76
2023/06/20 00:22:53;;;;;;;17.00;11.15;;;;;;;19.89;78.97;101157.50;5055584;28;20029;-76
2023/06/20 00:25:19;;;;;;;13.27;11.43;;;;;;;19.92;78.78;101164.22;5055481;28;20367;-76
2023/06/20 00:27:44;;;;;;;15.00;11.98;;;;;;;19.91;79.47;101163.41;5055343;28;20029;-76
2023/06/20 00:30:10;;;;;;;16.70;11.30;;;;;;;19.83;78.16;101142.34;5055357;28;20154;-76
2023/06/20 00:32:35;;;;;;;14.80;11.30;;;;;;;19.91;78.65;101159.97;5055357;28;20024;-76
2023/06/20 00:35:01;;;;;;;14.60;11.35;;;;;;;19.89;77.25;101152.25;5055171;28;20382;-76
2023/06/20 00:37:27;;;;;;;12.30;10.98;;;;;;;19.81;78.32;101152.16;5054966;28;20041;-78
2023/06/20 00:39:52;;;;;;;14.07;11.32;;;;;;;19.77;78.01;101141.16;5055209;28;20029;-77
2023/06/20 00:42:25;;;;;;;18.50;12.05;;;;;;;19.69;77.20;101135.84;5055274;28;20020;-76
2023/06/20 00:44:51;;;;;;;13.57;11.40;;;;;;;19.71;77.03;101135.69;5054949;28;20039;-76
2023/06/20 00:47:18;;;;;;;13.05;11.23;;;;;;;19.82;78.46;101160.84;5053990;28;20029;-76
2023/06/20 00:49:46;;;;;;;14.50;11.15;;;;;;;19.81;77.53;101161.81;5054883;28;20025;-76
2023/06/20 00:52:14;;;;;;;15.05;10.65;;;;;;;19.69;77.79;101135.03;5055076;28;20031;-77
2023/06/20 00:54:42;;;;;;;12.38;10.73;;;;;;;19.80;77.31;101158.38;5054678;28;20031;-76
2023/06/20 00:57:07;;;;;;;14.40;11.27;;;;;;;19.79;77.65;101156.75;5054838;28;20021;-76
2023/06/20 00:59:33;;;;;;;14.52;11.60;;;;;;;19.82;77.90;101158.22;5054712;28;20036;-77
2023/06/20 01:01:59;;;;;;;15.70;11.75;;;;;;;19.75;78.33;101143.09;5054811;28;20028;-77
2023/06/20 01:04:24;;;;;;;15.30;10.73;;;;;;;19.67;77.89;101132.56;5054634;28;20132;-76
2023/06/20 01:06:59;;;;;;;15.18;11.05;;;;;;;19.59;78.14;101131.63;5054556;28;20025;-76
2023/06/20 01:10:03;;;;;;;17.20;11.32;;;;;;;19.76;77.31;101147.38;5054478;28;20027;-76
2023/06/20 01:12:40;;;;;;;17.23;11.82;;;;;;;19.73;77.53;101138.97;5054381;28;20040;-76
2023/06/20 01:15:32;;;;;;;14.77;10.95;;;;;;;19.75;77.07;101144.88;5054306;28;20040;-77
2023/06/20 01:18:25;;;;;;;12.25;10.40;;;;;;;19.73;77.06;101144.22;5054530;28;20029;-76
2023/06/20 01:20:56;;;;;;;14.82;11.38;;;;;;;19.53;77.33;101109.44;5054393;28;20018;-76
2023/06/20 01:23:36;;;;;;;14.27;11.70;;;;;;;19.70;77.11;101140.09;5054229;28;20074;-76
2023/06/20 01:26:05;;;;;;;15.03;11.43;;;;;;;19.66;79.71;101133.50;5052306;28;20032;-76
2023/06/20 01:28:52;;;;;;;13.77;10.48;;;;;;;19.62;79.25;101133.94;5054424;28;20304;-76
2023/06/20 01:31:30;;;;;;;14.02;11.65;;;;;;;19.60;77.20;101122.81;5054401;28;20121;-77
2023/06/20 01:34:04;;;;;;;15.35;11.27;;;;;;;19.60;78.57;101122.81;5054098;28;20036;-77
2023/06/20 01:36:34;;;;;;;14.60;10.63;;;;;;;19.67;78.49;101129.09;5053900;28;20449;-77
2023/06/20 01:39:06;;;;;;;14.93;10.90;;;;;;;19.64;78.02;101124.13;5053959;28;20022;-76
2023/06/20 01:41:36;;;;;;;13.25;10.35;;;;;;;19.52;78.35;101113.03;5053819;28;20028;-79
2023/06/20 01:44:04;;;;;;;12.75;10.38;;;;;;;19.46;78.83;101110.97;5053982;28;20471;-79
2023/06/20 01:46:32;;;;;;;15.52;9.98;;;;;;;19.53;80.06;101122.53;5052416;28;20067;-77
2023/06/20 01:48:59;;;;;;;14.63;10.98;;;;;;;19.49;78.37;101115.94;5053846;28;20052;-77
2023/06/20 01:51:26;;;;;;;13.38;10.88;;;;;;;19.59;78.50;101121.97;5054000;28;20351;-76
2023/06/20 01:53:53;;;;;;;14.85;11.63;;;;;;;19.55;77.69;101117.13;5053769;28;20021;-77
2023/06/20 01:56:19;;;;;;;14.25;11.45;;;;;;;19.51;78.07;101113.19;5053717;28;20050;-76
2023/06/20 01:58:48;;;;;;;12.20;10.50;;;;;;;19.44;77.35;101103.28;5053551;28;20025;-77
2023/06/20 02:01:14;;;;;;;12.18;10.75;;;;;;;19.49;78.74;101108.09;5053449;28;20029;-78
2023/06/20 02:03:41;;;;;;;12.73;10.60;;;;;;;19.49;77.78;101105.47;5052633;28;20021;-76
2023/06/20 02:06:09;;;;;;;11.60;10.40;;;;;;;19.48;78.69;101103.81;5053611;28;20056;-76
2023/06/20 02:08:37;;;;;;;12.85;10.57;;;;;;;19.48;77.46;101104.66;5053455;28;20021;-77
2023/06/20 02:11:04;;;;;;;13.55;10.52;;;;;;;19.32;78.41;101078.28;5053372;28;20021;-77
2023/06/20 02:13:30;;;;;;;12.85;10.30;;;;;;;19.33;77.89;101076.47;5053409;28;20086;-76
2023/06/20 02:15:57;;;;;;;13.25;10.93;;;;;;;19.42;78.37;101084.28;5053213;28;20028;-77
2023/06/20 02:18:23;;;;;;;15.48;11.23;;;;;;;19.47;76.47;101097.75;5053471;28;20036;-76
2023/06/20 02:20:51;;;;;;;14.07;10.93;;;;;;;19.46;77.01;101098.72;5053466;28;20029;-76
2023/06/20 02:23:26;;;;;;;13.07;10.38;;;;;;;19.45;77.46;101098.84;5053159;28;20025;-77
2023/06/20 02:25:55;;;;;;;12.45;10.77;;;;;;;19.33;77.15;101085.16;5052840;28;20108;-76
2023/06/20 02:28:22;;;;;;;12.93;11.07;;;;;;;19.39;77.05;101089.81;5052945;28;20039;-76
2023/06/20 02:30:49;;;;;;;13.35;10.77;;;;;;;19.30;76.33;101082.00;5053132;28;20029;-77
2023/06/20 02:33:16;;;;;;;13.30;10.02;;;;;;;19.25;77.30;101073.75;5053331;28;20029;-80
2023/06/20 02:35:44;;;;;;;14.82;10.70;;;;;;;19.40;77.30;101096.69;5051673;28;20033;-77
2023/06/20 02:38:10;;;;;;;16.25;10.63;;;;;;;19.40;76.90;101098.50;5052706;28;20061;-77
2023/06/20 02:40:36;;;;;;;15.13;10.50;;;;;;;19.24;76.87;101074.72;5051549;28;20053;-82
2023/06/20 02:43:02;;;;;;;14.20;10.63;;;;;;;19.33;79.35;101095.63;5052642;28;20474;-77
2023/06/20 02:45:27;;;;;;;12.57;9.70;;;;;;;19.23;78.70;101075.72;5051446;28;20056;-77
2023/06/20 02:48:17;;;;;;;13.73;11.20;;;;;;;19.34;77.84;101092.03;5052737;28;20474;-77
2023/06/20 02:51:22;;;;;;;13.63;10.73;;;;;;;19.37;77.44;101101.38;5052558;28;20029;-76
2023/06/20 02:54:03;;;;;;;14.43;11.18;;;;;;;19.23;77.54;101075.72;4991328;28;20034;-76
2023/06/20 02:56:30;;;;;;;13.60;11.23;;;;;;;19.28;77.10;101097.06;4991099;28;20049;-77
2023/06/20 02:59:00;;;;;;;14.48;11.32;;;;;;;19.07;76.73;101058.84;4991269;28;20081;-77
2023/06/20 03:01:27;;;;;;;16.90;11.77;;;;;;;19.27;77.04;101090.16;4991455;28;20097;-76
2023/06/20 03:03:56;;;;;;;12.88;11.07;;;;;;;19.01;77.69;101053.38;4991216;28;20038;-76
2023/06/20 03:06:26;;;;;;;16.95;11.40;;;;;;;19.18;78.63;101082.22;4991078;28;20098;-76
2023/06/20 03:08:54;;;;;;;14.45;12.10;;;;;;;19.22;77.02;101087.16;4990665;28;20089;-76
2023/06/20 03:11:21;;;;;;;15.13;10.98;;;;;;;19.09;79.24;101070.00;4991110;28;20045;-76
2023/06/20 03:13:47;;;;;;;14.60;10.73;;;;;;;19.15;78.39;101092.13;4991056;28;20130;-77
2023/06/20 03:16:12;;;;;;;13.73;10.73;;;;;;;18.99;79.00;101060.56;4991149;28;20038;-76
2023/06/20 03:18:38;;;;;;;23.20;12.20;;;;;;;19.09;78.11;101074.41;4990988;28;20030;-76
2023/06/20 03:21:04;;;;;;;13.35;11.15;;;;;;;19.07;77.30;101071.09;4990867;28;20415;-76
2023/06/20 03:23:29;;;;;;;14.13;11.10;;;;;;;19.07;78.04;101071.91;4991048;28;20080;-77
2023/06/20 03:25:55;;;;;;;22.02;11.73;;;;;;;19.02;77.64;101061.06;4990685;28;20411;-78
2023/06/20 03:28:22;;;;;;;17.75;11.32;;;;;;;19.04;78.20;101066.16;4999025;28;20042;-77
2023/06/20 03:30:47;;;;;;;16.08;11.68;;;;;;;18.90;77.79;101049.16;5052328;28;20453;-77
2023/06/20 03:33:13;;;;;;;17.98;12.50;;;;;;;18.91;78.49;101062.09;5050899;28;20029;-76
2023/06/20 03:35:39;;;;;;;15.40;11.88;;;;;;;18.91;79.03;101061.28;5052197;28;20482;-76
2023/06/20 03:38:04;;;;;;;15.43;11.38;;;;;;;18.96;78.41;101073.91;5050101;28;20049;-76
2023/06/20 03:40:30;;;;;;;16.40;11.45;;;;;;;18.89;78.10;101063.22;5052357;28;20098;-82
2023/06/20 03:42:55;;;;;;;13.85;12.35;;;;;;;18.75;77.52;101043.56;5051998;28;20386;-76
2023/06/20 03:45:20;;;;;;;13.48;11.73;;;;;;;18.90;77.21;101065.69;5052034;28;20029;-76
2023/06/20 03:47:46;;;;;;;14.32;11.75;;;;;;;18.90;77.42;101072.72;5052023;28;20546;-77
2023/06/20 03:50:11;;;;;;;16.58;12.02;;;;;;;18.99;76.47;101087.56;5052236;28;20080;-77
2023/06/20 03:52:36;;;;;;;14.10;11.95;;;;;;;18.76;77.56;101067.94;5051862;28;20395;-77
2023/06/20 03:55:02;;;;;;;13.95;12.00;;;;;;;18.89;77.99;101100.69;5052167;28;20495;-78
2023/06/20 03:57:27;;;;;;;15.07;11.70;;;;;;;18.89;78.71;101107.69;5051930;28;20060;-77
2023/06/20 03:59:52;;;;;;;14.20;12.32;;;;;;;18.88;78.92;101109.50;5051829;28;20033;-77
2023/06/20 04:02:18;;;;;;;15.00;11.80;;;;;;;18.93;78.62;101109.06;5051970;28;20021;-76
2023/06/20 04:04:49;;;;;;;15.60;12.82;;;;;;;18.78;77.71;101077.31;5052012;28;20028;-76
2023/06/20 04:07:18;;;;;;;16.10;13.32;;;;;;;18.90;77.49;101094.47;5051674;28;20025;-78
2023/06/20 04:09:44;;;;;;;16.70;13.10;;;;;;;19.02;76.89;101094.28;5051902;28;20033;-83
2023/06/20 04:12:09;;;;;;;16.15;13.30;;;;;;;19.03;75.85;101091.50;5051699;28;20025;-78
2023/06/20 04:14:34;;;;;;;18.98;13.18;;;;;;;19.23;75.26;101112.38;5051573;28;20134;-82
2023/06/20 04:17:00;;;;;;;14.27;12.35;;;;;;;19.28;77.01;101120.63;5051811;28;20040;-77
2023/06/20 04:19:25;;;;;;;15.75;13.02;;;;;;;19.27;76.90;101122.41;5050358;28;20025;-80
2023/06/20 04:21:50;;;;;;;16.20;12.50;;;;;;;19.30;75.78;101109.03;5055143;28;20021;-79
2023/06/20 04:24:16;;;;;;;16.88;13.40;;;;;;;19.14;76.21;101078.22;5055461;28;20040;-76
2023/06/20 04:26:41;;;;;;;18.55;13.63;;;;;;;19.38;76.84;101110.91;5055185;28;20031;-79
2023/06/20 04:29:06;;;;;;;16.38;13.05;;;;;;;19.34;77.63;101106.94;5055325;28;20359;-81
2023/06/20 04:31:31;;;;;;;18.75;13.73;;;;;;;19.32;77.20;101101.84;5055462;28;20094;-76
2023/06/20 04:33:57;;;;;;;17.33;13.75;;;;;;;19.26;76.88;101080.66;5055376;28;20029;-76
2023/06/20 04:36:23;;;;;;;16.58;14.02;;;;;;;19.50;76.89;101099.25;5055143;28;20029;-76
2023/06/20 04:38:48;;;;;;;14.82;13.15;;;;;;;19.76;75.46;101094.97;5054977;28;20383;-82
2023/06/20 04:41:14;;;;;;;16.42;14.70;;;;;;;20.09;75.09;101100.50;5055148;28;20063;-76
2023/06/20 04:43:39;;;;;;;14.63;12.23;;;;;;;20.71;72.70;101077.63;5055084;28;20033;-82
2023/06/20 04:46:04;;;;;;;12.43;9.77;;;;;;;21.34;70.40;101074.66;5055246;28;20477;-77
2023/06/20 04:48:35;;;;;;;15.30;12.48;;;;;;;21.55;69.46;101082.06;5055087;28;20033;-79
2023/06/20 04:51:01;;;;;;;16.67;13.52;;;;;;;21.64;67.85;101061.88;5055101;28;20025;-78
2023/06/20 04:53:27;;;;;;;14.68;11.88;;;;;;;22.01;67.23;101087.69;5054941;28;20104;-77
2023/06/20 04:55:52;;;;;;;16.10;12.77;;;;;;;22.02;65.83;101078.81;5055149;28;20109;-76
2023/06/20 04:58:18;;;;;;;16.52;11.70;;;;;;;22.28;65.49;101076.03;5055068;28;20721;-77
2023/06/20 05:00:43;;;;;;;13.60;11.57;;;;;;;22.66;63.68;101036.78;5054932;28;20029;-77
2023/06/20 05:03:09;;;;;;;16.27;12.02;;;;;;;23.55;60.84;101072.41;5054953;28;20028;-76
2023/06/20 05:05:34;;;;;;;15.05;11.88;;;;;;;24.38;58.74;101077.69;5054887;28;20363;-78
2023/06/20 05:07:59;;;;;;;12.95;10.98;;;;;;;24.75;57.34;101053.00;5054764;28;20382;-81
2023/06/20 05:10:25;;;;;;;14.60;12.55;;;;;;;25.74;54.73;101080.59;5054687;28;20025;-77
2023/06/20 05:12:51;;;;;;;16.05;13.27;;;;;;;26.44;51.91;101073.63;5054961;28;20170;-76
2023/06/20 05:15:23;;;;;;;14.98;13.07;;;;;;;27.14;49.93;101069.09;5054836;28;20040;-79
2023/06/20 05:17:48;;;;;;;16.55;13.30;;;;;;;27.55;48.11;101068.16;5055589;28;20020;-78
2023/06/20 05:20:14;;;;;;;17.50;14.35;;;;;;;28.31;46.03;101057.97;5054692;28;20390;-80
2023/06/20 05:22:39;;;;;;;16.33;14.57;;;;;;;28.75;44.92;101049.25;5054602;28;20509;-77
2023/06/20 05:25:05;;;;;;;16.20;14.30;;;;;;;29.35;43.22;101055.09;5054677;28;20096;-76
2023/06/20 05:27:30;;;;;;;16.40;14.35;;;;;;;29.88;41.81;101048.59;5054505;28;20071;-77
2023/06/20 05:29:56;;;;;;;17.25;15.15;;;;;;;30.14;40.65;101037.72;5053208;28;20107;-77
2023/06/20 05:32:21;;;;;;;15.35;13.75;;;;;;;30.52;40.66;101039.38;5054017;28;20075;-77
2023/06/20 05:34:46;;;;;;;15.23;12.90;;;;;;;30.98;39.51;101044.16;5054514;28;20060;-75
2023/06/20 05:37:12;;;;;;;14.52;13.02;;;;;;;31.32;38.76;101025.81;5054282;28;20111;-76
2023/06/20 05:39:37;;;;;;;16.90;15.20;;;;;;;31.78;38.36;101037.66;5054185;28;20021;-77
2023/06/20 05:42:03;;;;;;;15.18;13.68;;;;;;;31.98;37.75;101026.63;5053880;28;20029;-75
2023/06/20 05:44:28;;;;;;;13.63;12.05;;;;;;;32.20;37.37;101035.66;5054650;28;20035;-78
2023/06/20 05:46:53;;;;;;;16.75;14.52;;;;;;;32.09;37.58;101026.59;5054128;28;20055;-78
2023/06/20 05:49:21;;;;;;;16.00;14.30;;;;;;;31.80;37.35;101017.69;5054166;28;20017;-81
2023/06/20 05:51:47;;;;;;;17.98;13.90;;;;;;;31.87;37.90;101025.59;5054273;28;20025;-78
2023/06/20 05:54:13;;;;;;;16.75;14.55;;;;;;;32.16;36.96;101023.81;5053961;28;20025;-79
2023/06/20 05:56:39;;;;;;;16.27;14.50;;;;;;;32.33;36.96;101024.72;5052633;28;20040;-79
2023/06/20 05:59:04;;;;;;;17.42;15.50;;;;;;;32.44;36.28;101031.09;5053878;28;20052;-80
2023/06/20 06:01:29;;;;;;;17.33;15.07;;;;;;;32.88;35.95;101032.28;5053768;28;20025;-80
2023/06/20 06:03:55;;;;;;;15.32;13.73;;;;;;;32.96;35.90;101031.88;5053977;28;20025;-80
2023/06/20 06:06:21;;;;;;;17.60;15.30;;;;;;;32.94;35.11;101017.94;5053840;28;20028;-79
2023/06/20 06:08:46;;;;;;;16.25;14.55;;;;;;;32.38;35.84;101040.88;5053680;28;20364;-79
2023/06/20 06:11:12;;;;;;;19.67;14.70;;;;;;;31.38;38.43;101039.09;5053518;28;20031;-79
2023/06/20 06:13:39;;;;;;;17.15;15.30;;;;;;;30.46;39.78;101050.91;5053563;28;20351;-80
2023/06/20 06:16:04;;;;;;;17.88;16.02;;;;;;;29.39;42.33;101045.66;5053883;28;20070;-79
2023/06/20 06:18:30;;;;;;;18.67;16.67;;;;;;;28.44;44.92;101019.94;5052041;28;20482;-79
2023/06/20 06:20:55;;;;;;;19.75;17.33;;;;;;;27.80;46.48;101023.28;5052064;28;20516;-78
2023/06/20 06:23:21;;;;;;;18.48;16.23;;;;;;;27.47;48.16;101047.94;5051864;28;20129;-78
2023/06/20 06:25:46;;;;;;;20.13;17.83;;;;;;;27.21;48.73;101045.22;5053130;28;20159;-79
2023/06/20 06:28:12;;;;;;;22.40;19.38;;;;;;;26.98;49.94;101056.16;5052982;28;20033;-83
2023/06/20 06:30:37;;;;;;;21.58;19.27;;;;;;;26.67;50.27;101022.22;5051499;28;20098;-80
2023/06/20 06:33:07;;;;;;;24.58;22.08;;;;;;;26.47;52.46;101038.00;5053405;28;20378;-79
2023/06/20 06:35:33;;;;;;;21.52;19.30;;;;;;;26.54;51.32;101030.88;5052828;28;20086;-80
2023/06/20 06:37:58;;;;;;;21.70;19.40;;;;;;;26.87;52.03;101049.59;5052956;28;20087;-78
2023/06/20 06:40:24;;;;;;;23.95;18.40;;;;;;;27.05;50.88;101041.94;5052847;28;20056;-80
2023/06/20 06:42:50;;;;;;;20.40;18.20;;;;;;;27.05;51.14;101054.38;5053294;28;20027;-79
2023/06/20 06:45:15;;;;;;;21.52;18.85;;;;;;;27.06;51.77;101037.47;5052170;28;20036;-78
2023/06/20 06:47:41;;;;;;;21.25;19.02;;;;;;;27.23;51.39;101053.78;5052846;28;20112;-80
2023/06/20 06:50:07;;;;;;;23.63;17.42;;;;;;;27.29;51.40;101058.31;5052875;28;20025;-79
2023/06/20 06:52:34;;;;;;;19.27;15.05;;;;;;;27.37;51.02;101058.94;5052928;28;20422;-79
2023/06/20 06:55:00;;;;;;;16.25;13.60;;;;;;;27.13;51.78;101055.00;5052904;28;20052;-79
2023/06/20 06:57:25;;;;;;;15.40;12.30;;;;;;;27.09;52.10;101058.25;5052418;28;20063;-79
2023/06/20 06:59:50;;;;;;;14.57;11.52;;;;;;;27.29;52.14;101042.41;5052623;28;20147;-79
2023/06/20 07:02:16;;;;;;;13.77;12.10;;;;;;;27.80;51.18;101052.47;5052630;28;20036;-78
2023/06/20 07:04:41;;;;;;;12.80;11.27;;;;;;;28.54;49.14;101046.88;5052941;28;20021;-79
2023/06/20 07:07:06;;;;;;;15.80;11.68;;;;;;;30.08;45.70;101045.78;5052554;28;20035;-78
2023/06/20 07:09:32;;;;;;;13.10;11.00;;;;;;;31.24;43.41;101037.63;5052546;28;20029;-79
2023/06/20 07:11:57;;;;;;;14.10;11.25;;;;;;;32.33;40.14;101038.09;5052501;28;20033;-79
2023/06/20 07:14:23;;;;;;;11.60;10.40;;;;;;;33.08;38.29;101026.47;5052534;28;20370;-78
2023/06/20 07:16:48;;;;;;;13.90;10.52;;;;;;;33.74;38.07;101048.22;5051657;28;20025;-79
2023/06/20 07:19:14;;;;;;;12.82;9.90;;;;;;;34.74;35.92;101039.91;5053195;28;20025;-77
2023/06/20 07:21:39;;;;;;;11.82;9.18;;;;;;;35.23;34.37;101031.03;5051915;28;20127;-78
2023/06/20 07:24:05;;;;;;;11.98;9.55;;;;;;;35.59;33.99;101035.63;5052504;28;20031;-77
2023/06/20 07:26:30;;;;;;;11.55;10.27;;;;;;;35.92;32.89;101031.03;5052534;28;20141;-77
2023/06/20 07:28:55;;;;;;;11.95;9.43;;;;;;;36.30;32.13;101008.38;5052196;28;20025;-77
2023/06/20 07:31:21;;;;;;;11.50;8.55;;;;;;;36.65;31.71;101017.63;5052103;28;20017;-77
2023/06/20 07:33:46;;;;;;;9.80;8.57;;;;;;;36.41;32.53;100987.72;5052506;28;20037;-78
2023/06/20 07:36:12;;;;;;;9.25;8.25;;;;;;;36.35;32.08;101013.78;5052391;28;20094;-78
2023/06/20 07:38:38;;;;;;;7.97;6.70;;;;;;;36.30;32.05;100994.13;5052216;28;20041;-79
2023/06/20 07:41:03;;;;;;;8.70;7.30;;;;;;;36.36;31.88;101017.28;5052373;28;20025;-79
2023/06/20 07:43:29;;;;;;;8.48;6.88;;;;;;;35.60;33.37;101015.78;5052002;28;20454;-79
2023/06/20 07:45:54;;;;;;;8.45;6.70;;;;;;;33.97;35.93;101005.16;5052178;28;20037;-79
2023/06/20 07:48:22;;;;;;;8.38;7.07;;;;;;;32.51;39.01;101002.38;5052360;28;20078;-80
2023/06/20 07:50:48;;;;;;;8.45;7.00;;;;;;;31.37;41.21;100997.44;5052407;28;20025;-78
2023/06/20 07:53:13;;;;;;;10.30;7.90;;;;;;;30.49;43.94;100992.66;5052243;28;20021;-81
2023/06/20 07:55:38;;;;;;;8.13;6.78;;;;;;;29.86;45.44;100984.91;5053807;28;20359;-77
2023/06/20 07:58:04;;;;;;;8.13;6.45;;;;;;;29.28;47.27;100981.69;5056087;28;20036;-77
2023/06/20 08:00:29;;;;;;;8.52;6.68;;;;;;;28.99;48.03;100978.59;5055764;28;20040;-78
2023/06/20 08:02:54;;;;;;;8.50;6.90;;;;;;;28.60;48.71;100982.25;5056181;28;20032;-82
2023/06/20 08:05:20;;;;;;;8.60;7.07;;;;;;;28.63;49.39;101013.75;5054345;28;20186;-82
2023/06/20 08:07:45;;;;;;;8.70;6.55;;;;;;;28.40;50.36;100985.00;5055936;28;20083;-78
2023/06/20 08:10:11;;;;;;;12.32;7.43;;;;;;;28.63;50.46;101013.75;5055960;28;20025;-78
2023/06/20 08:12:37;;;;;;;9.45;7.10;;;;;;;28.51;50.76;100999.47;5055825;28;20064;-79
2023/06/20 08:15:02;;;;;;;8.68;7.38;;;;;;;28.60;50.76;101022.13;5055399;28;20080;-79
2023/06/20 08:17:28;;;;;;;8.32;7.32;;;;;;;28.35;50.35;100991.97;5055748;28;20110;-77
2023/06/20 08:19:53;;;;;;;8.98;6.20;;;;;;;28.45;51.53;101016.25;5055928;28;20322;-77
2023/06/20 08:22:18;;;;;;;8.85;5.72;;;;;;;28.37;50.39;101001.38;5055782;28;20422;-77
2023/06/20 08:24:43;;;;;;;8.30;5.63;;;;;;;28.36;50.50;101005.06;5055618;28;20482;-77
2023/06/20 08:27:09;;;;;;;8.95;6.28;;;;;;;28.24;52.08;101004.84;5055516;28;20075;-76
2023/06/20 08:29:34;;;;;;;8.07;5.50;;;;;;;28.44;51.53;101014.63;5055203;28;20071;-77
2023/06/20 08:32:00;;;;;;;8.93;7.05;;;;;;;28.34;51.47;101004.44;5055228;28;20078;-76
2023/06/20 08:34:25;;;;;;;8.35;5.53;;;;;;;28.47;51.26;100995.59;5055275;28;20047;-77
2023/06/20 08:36:52;;;;;;;6.30;5.10;;;;;;;28.43;50.81;100991.75;5053705;28;20104;-79
2023/06/20 08:39:18;;;;;;;5.82;4.90;;;;;;;28.28;50.58;101010.59;5055074;28;20048;-76
2023/06/20 08:41:43;;;;;;;8.35;5.30;;;;;;;28.17;51.61;101003.22;5054765;28;20495;-77
2023/06/20 08:44:09;;;;;;;8.23;5.03;;;;;;;28.32;52.63;101013.63;5054778;28;20102;-77
2023/06/20 08:46:34;;;;;;;7.55;5.20;;;;;;;28.17;51.51;100950.94;5054605;28;20379;-77
2023/06/20 08:49:00;;;;;;;8.32;4.97;;;;;;;28.60;51.62;101003.53;5054837;28;20021;-77
2023/06/20 08:51:27;;;;;;;7.03;4.60;;;;;;;28.48;50.10;100975.97;5054835;28;20021;-78
2023/06/20 08:53:54;;;;;;;5.78;4.47;;;;;;;28.61;50.31;101002.50;5054061;28;20025;-77
2023/06/20 08:56:20;;;;;;;7.40;5.05;;;;;;;28.51;49.91;100976.38;5054966;28;20104;-78
2023/06/20 08:58:46;;;;;;;8.10;5.35;;;;;;;28.72;51.06;101009.81;5054661;28;20024;-77
2023/06/20 09:01:12;;;;;;;7.05;5.00;;;;;;;28.61;50.91;101002.50;5054734;28;20453;-76
2023/06/20 09:03:37;;;;;;;9.80;5.50;;;;;;;28.54;50.78;101004.38;5054960;28;20052;-76
2023/06/20 09:06:03;;;;;;;8.40;4.60;;;;;;;28.62;50.63;101000.69;5054873;28;20052;-76
2023/06/20 09:08:43;;;;;;;8.70;4.40;;;;;;;28.82;50.58;101002.22;5054027;28;20112;-78
2023/06/20 09:11:11;;;;;;;5.95;4.75;;;;;;;28.79;49.76;101002.63;5054699;28;20025;-77
2023/06/20 09:13:37;;;;;;;7.30;4.60;;;;;;;28.70;50.37;100977.31;5054646;28;20028;-76
2023/06/20 09:16:07;;;;;;;8.27;4.60;;;;;;;28.81;49.64;100995.25;5054445;28;20033;-76
2023/06/20 09:18:34;;;;;;;6.82;4.75;;;;;;;28.72;49.59;100964.66;5054778;28;20029;-76
2023/06/20 09:21:00;;;;;;;7.25;4.57;;;;;;;28.98;50.15;101000.09;5054616;28;20608;-76
2023/06/20 09:23:29;;;;;;;5.03;4.15;;;;;;;28.83;49.44;101003.03;5054673;28;20037;-78
2023/06/20 09:25:56;;;;;;;7.75;4.80;;;;;;;28.64;50.31;100998.63;5054469;28;20398;-76
2023/06/20 09:28:22;;;;;;;5.95;4.20;;;;;;;28.63;49.79;100983.69;5054304;28;20029;-77
2023/06/20 09:30:48;;;;;;;7.18;4.78;;;;;;;28.76;49.51;101000.38;5054245;28;20032;-77
2023/06/20 09:33:15;;;;;;;6.13;4.68;;;;;;;28.78;49.97;100990.34;5054429;28;20028;-77
2023/06/20 09:35:40;;;;;;;7.40;4.43;;;;;;;29.19;50.25;101005.06;5054395;28;20031;-76
2023/06/20 09:38:05;;;;;;;5.80;4.60;;;;;;;29.12;49.23;101014.97;5054034;28;20397;-76
2023/06/20 09:40:41;;;;;;;7.15;4.65;;;;;;;28.97;49.55;101001.13;5054300;28;20025;-76
2023/06/20 09:43:06;;;;;;;6.13;4.50;;;;;;;29.12;49.67;101004.31;5054177;28;20106;-77
2023/06/20 09:45:32;;;;;;;6.97;4.80;;;;;;;29.15;49.28;101006.53;5053988;28;20072;-77
2023/06/20 09:47:58;;;;;;;6.15;4.90;;;;;;;29.02;49.65;100991.50;5053049;28;20078;-78
2023/06/20 09:50:25;;;;;;;8.43;5.28;;;;;;;28.93;49.50;101003.41;5054231;28;20029;-77
2023/06/20 09:53:00;;;;;;;8.48;4.57;;;;;;;28.94;50.27;100970.47;5053984;28;20021;-79
2023/06/20 09:55:26;;;;;;;9.55;4.88;;;;;;;29.09;50.44;100978.13;5054193;28;20215;-77
2023/06/20 09:57:57;;;;;;;6.13;4.00;;;;;;;29.52;49.00;101006.72;5053962;28;20025;-79
2023/06/20 10:00:26;;;;;;;8.93;4.20;;;;;;;29.69;48.47;101005.13;5053941;28;20036;-76
2023/06/20 10:02:53;;;;;;;5.82;4.07;;;;;;;29.63;48.41;100993.53;5052521;28;20025;-79
2023/06/20 10:05:20;;;;;;;10.30;4.38;;;;;;;29.75;49.04;101006.13;5053878;28;20025;-78
2023/06/20 10:07:48;;;;;;;5.28;3.80;;;;;;;29.66;48.08;100989.59;5053614;28;20036;-77
2023/06/20 10:10:16;;;;;;;5.20;4.03;;;;;;;29.65;48.40;101007.41;5053602;28;20028;-77
2023/06/20 10:12:44;;;;;;;5.03;3.80;;;;;;;29.64;49.19;100992.50;5052490;28;20020;-77
2023/06/20 10:15:10;;;;;;;6.50;4.00;;;;;;;29.61;47.74;100992.94;5054052;28;20083;-78
2023/06/20 10:17:46;;;;;;;5.78;3.50;;;;;;;29.66;48.13;100994.94;5053354;28;20028;-78
2023/06/20 10:20:27;;;;;;;6.32;4.00;;;;;;;29.65;47.36;100980.00;5051486;28;20033;-76
2023/06/20 10:22:58;;;;;;;5.53;4.10;;;;;;;29.75;47.68;100990.16;5053680;28;20167;-79
2023/06/20 10:25:25;;;;;;;5.65;3.75;;;;;;;29.63;46.70;100988.19;5053044;28;20548;-76
2023/06/20 10:28:09;;;;;;;5.78;3.90;;;;;;;29.73;46.66;100990.38;5053356;28;20033;-78
2023/06/20 10:30:46;;;;;;;6.10;3.90;;;;;;;29.73;47.15;100973.59;5053217;28;20025;-76
2023/06/20 10:33:13;;;;;;;4.60;3.45;;;;;;;29.70;46.93;100977.50;5053171;28;20482;-79
2023/06/20 10:35:48;;;;;;;8.45;3.95;;;;;;;29.58;47.33;100958.75;5053063;28;20021;-79
2023/06/20 10:38:13;;;;;;;4.95;3.42;;;;;;;29.63;46.75;100966.91;5053065;28;20079;-77
2023/06/20 10:40:39;;;;;;;4.32;3.60;;;;;;;29.43;45.85;100952.94;5053206;28;20033;-79
2023/06/20 10:43:14;;;;;;;4.55;3.03;;;;;;;29.62;47.39;100959.97;5051130;28;20116;-80
2023/06/20 10:45:51;;;;;;;5.30;3.55;;;;;;;29.46;46.80;100954.34;5051875;28;20115;-79
2023/06/20 10:48:17;;;;;;;6.78;3.33;;;;;;;29.43;47.54;100943.09;5051397;28;20065;-79
2023/06/20 10:50:42;;;;;;;7.07;3.35;;;;;;;29.57;47.39;100925.19;5052664;28;20116;-78
2023/06/20 10:53:08;;;;;;;4.47;3.20;;;;;;;29.63;46.68;100934.97;5051103;28;20068;-88
2023/06/20 10:55:38;;;;;;;4.47;3.42;;;;;;;29.79;46.31;100930.09;5052665;28;20474;-80
2023/06/20 10:58:03;;;;;;;5.43;3.50;;;;;;;29.82;44.68;100940.31;5052845;28;20064;-83
2023/06/20 11:00:28;;;;;;;4.97;3.53;;;;;;;29.87;44.95;100919.97;5053006;28;20475;-79
2023/06/20 11:02:56;;;;;;;4.85;3.20;;;;;;;29.91;45.36;100926.50;5052584;28;20100;-79
2023/06/20 11:05:26;;;;;;;8.05;3.53;;;;;;;29.54;45.37;100861.78;5052497;28;20052;-81
2023/06/20 11:08:01;;;;;;;4.60;3.13;;;;;;;30.09;45.43;100922.22;5052512;28;20368;-80
2023/06/20 11:10:35;;;;;;;6.38;3.38;;;;;;;29.96;44.90;100923.16;5052953;28;20138;-82
2023/06/20 11:13:03;;;;;;;4.35;3.22;;;;;;;29.82;45.59;100897.72;5052769;28;20096;-81
2023/06/20 11:15:30;;;;;;;5.90;3.38;;;;;;;29.92;44.96;100920.13;5052421;28;20025;-80